Time;durP1;ratioP1;P1;durP2;ratioP2;P2;SDS_P1;SDS_P2;PMS_P1;PMS_P2;Temp;Humidity;BMP_temperature;BMP_pressure;BME280_temperature;BME280_humidity;BME280_pressure;Samples;Min_cycle;Max_cycle;Signal;HPM_P1;HPM_P2
2022/09/16 00:00:05;;;;;;;4.57;1.35;;;;;;;11.41;96.57;101126.66;5054508;28;20103;-79
2022/09/16 00:02:32;;;;;;;2.10;1.42;;;;;;;11.42;96.35;101125.50;5054634;28;20056;-79
2022/09/16 00:05:05;;;;;;;4.78;1.10;;;;;;;11.41;96.56;101124.00;5054622;28;20045;-77
2022/09/16 00:07:31;;;;;;;2.10;0.85;;;;;;;11.40;96.44;101125.91;5054830;28;20426;-79
2022/09/16 00:09:58;;;;;;;2.85;0.95;;;;;;;11.44;96.44;101123.88;5036610;28;20140;-77
2022/09/16 00:12:25;;;;;;;5.40;1.20;;;;;;;11.42;96.28;101123.56;5052354;28;20071;-79
2022/09/16 00:14:52;;;;;;;3.25;1.10;;;;;;;11.41;96.36;101124.75;5054387;28;20052;-79
2022/09/16 00:17:19;;;;;;;1.90;0.93;;;;;;;11.44;96.46;101123.88;5036705;28;20865;-78
2022/09/16 00:19:46;;;;;;;8.52;1.05;;;;;;;11.47;96.24;101117.69;5036553;28;20053;-77
2022/09/16 00:22:12;;;;;;;4.22;1.10;;;;;;;11.48;96.32;101119.16;5054461;28;20112;-77
2022/09/16 00:24:39;;;;;;;3.30;1.02;;;;;;;11.46;96.70;101113.53;5054559;28;20125;-79
2022/09/16 00:27:06;;;;;;;3.00;1.10;;;;;;;11.47;97.14;101108.94;5053742;28;20045;-78
2022/09/16 00:29:33;;;;;;;1.45;0.90;;;;;;;11.42;96.99;101115.56;5054067;28;20042;-79
2022/09/16 00:32:01;;;;;;;4.53;1.20;;;;;;;11.38;97.25;101109.63;5053346;28;20045;-78
2022/09/16 00:34:27;;;;;;;2.72;1.00;;;;;;;11.38;97.37;101112.28;5036841;28;20077;-79
2022/09/16 00:36:54;;;;;;;5.50;1.13;;;;;;;11.36;97.71;101107.38;5053834;28;20041;-78
2022/09/16 00:39:21;;;;;;;3.10;1.00;;;;;;;11.39;97.72;101123.69;5036870;28;20044;-79
2022/09/16 00:41:47;;;;;;;5.05;1.20;;;;;;;11.35;97.48;101119.22;5035333;28;20474;-79
2022/09/16 00:44:51;;;;;;;3.55;1.00;;;;;;;11.35;97.23;101119.22;5054079;28;20524;-79
2022/09/16 00:47:42;;;;;;;2.28;1.05;;;;;;;11.30;96.89;101116.38;5036902;28;20045;-78
2022/09/16 00:50:15;;;;;;;4.88;1.10;;;;;;;11.27;96.98;101115.31;5052646;28;20049;-79
2022/09/16 00:52:42;;;;;;;2.65;0.98;;;;;;;11.27;97.76;101110.00;5054115;28;20088;-77
2022/09/16 00:55:14;;;;;;;5.53;1.17;;;;;;;11.28;97.79;101114.13;5052023;28;20128;-78
2022/09/16 00:57:42;;;;;;;3.22;0.95;;;;;;;11.28;97.81;101108.06;5052519;28;20107;-78
2022/09/16 01:00:11;;;;;;;2.42;1.15;;;;;;;11.29;97.98;101104.22;5053881;28;20045;-78
2022/09/16 01:02:40;;;;;;;2.60;0.95;;;;;;;11.30;97.68;101113.72;5053465;28;20132;-77
2022/09/16 01:05:20;;;;;;;2.30;1.00;;;;;;;11.28;97.73;101110.72;5053175;28;20092;-77
2022/09/16 01:07:51;;;;;;;3.30;1.20;;;;;;;11.26;97.75;101107.75;5053926;28;20049;-77
2022/09/16 01:10:20;;;;;;;5.60;1.15;;;;;;;11.27;98.10;101101.25;5035460;28;20140;-76
2022/09/16 01:12:55;;;;;;;5.13;1.30;;;;;;;11.26;97.93;101100.50;5035480;28;20579;-77
2022/09/16 01:15:35;;;;;;;3.00;1.20;;;;;;;11.25;97.52;101103.59;5054074;28;20165;-76
2022/09/16 01:18:11;;;;;;;1.15;0.70;;;;;;;11.23;97.81;101100.63;5053691;28;20070;-76
2022/09/16 01:21:05;;;;;;;1.17;0.75;;;;;;;11.23;97.85;101112.03;5053591;28;20044;-76
2022/09/16 01:23:44;;;;;;;2.58;1.10;;;;;;;11.26;97.73;101111.16;5035389;28;20069;-77
2022/09/16 01:26:46;;;;;;;2.47;1.20;;;;;;;11.27;97.63;101111.91;5035817;28;20052;-77
2022/09/16 01:29:37;;;;;;;2.72;1.05;;;;;;;11.25;97.75;101122.25;5033265;28;20885;-77
2022/09/16 01:32:35;;;;;;;3.58;1.15;;;;;;;11.22;98.05;101113.22;5053443;28;20558;-76
2022/09/16 01:35:19;;;;;;;3.50;1.10;;;;;;;11.21;97.97;101110.97;5035309;28;20569;-76
2022/09/16 01:37:45;;;;;;;2.97;1.20;;;;;;;11.17;98.15;101102.38;5034815;28;20428;-76
2022/09/16 01:40:27;;;;;;;3.63;0.95;;;;;;;11.16;98.42;101106.22;5053413;28;20577;-76
2022/09/16 01:43:07;;;;;;;4.07;1.23;;;;;;;11.11;98.54;101102.19;5034949;28;20048;-76
2022/09/16 01:45:57;;;;;;;4.53;1.20;;;;;;;11.08;98.33;101103.06;5035066;28;20509;-76
2022/09/16 01:48:40;;;;;;;3.20;1.15;;;;;;;11.04;98.29;101105.09;5018640;28;20056;-77
2022/09/16 01:51:17;;;;;;;2.85;1.30;;;;;;;10.99;98.29;101101.06;5035214;28;20541;-77
2022/09/16 01:53:52;;;;;;;6.07;1.05;;;;;;;10.97;98.31;101103.44;5051198;28;20107;-77
2022/09/16 01:56:36;;;;;;;2.78;1.40;;;;;;;10.93;98.50;101107.38;5053321;28;20100;-77
2022/09/16 01:59:12;;;;;;;4.53;1.17;;;;;;;10.90;98.17;101106.31;5035471;28;20137;-77
2022/09/16 02:01:46;;;;;;;5.78;1.17;;;;;;;10.88;98.44;101110.59;5034719;28;20525;-77
2022/09/16 02:04:30;;;;;;;5.50;0.93;;;;;;;10.87;98.39;101107.19;5053073;28;20054;-77
2022/09/16 02:06:59;;;;;;;2.15;0.90;;;;;;;10.85;98.22;101111.47;5052263;28;20049;-77
2022/09/16 02:09:32;;;;;;;2.33;0.90;;;;;;;10.84;98.35;101112.63;5035110;28;20462;-77
2022/09/16 02:12:04;;;;;;;9.65;1.00;;;;;;;10.82;98.43;101118.38;5034687;28;20224;-79
2022/09/16 02:14:34;;;;;;;5.22;0.93;;;;;;;10.80;98.42;101110.09;5034833;28;20509;-77
2022/09/16 02:17:06;;;;;;;5.05;1.95;;;;;;;10.77;98.58;101116.31;5051707;28;20037;-77
2022/09/16 02:19:43;;;;;;;4.20;1.15;;;;;;;10.75;98.88;101109.91;5034409;28;20053;-77
2022/09/16 02:22:14;;;;;;;2.03;0.90;;;;;;;10.75;98.78;101113.31;5051878;28;20429;-79
2022/09/16 02:24:43;;;;;;;2.83;1.30;;;;;;;10.76;99.35;101106.06;5052747;28;20132;-77
2022/09/16 02:27:16;;;;;;;4.18;1.40;;;;;;;10.77;99.25;101100.31;5034314;28;20046;-78
2022/09/16 02:29:50;;;;;;;5.13;1.40;;;;;;;10.76;99.49;101109.47;5052075;28;20057;-77
2022/09/16 02:32:20;;;;;;;3.17;0.88;;;;;;;10.77;99.25;101110.22;5051371;28;20041;-77
2022/09/16 02:34:50;;;;;;;3.50;1.00;;;;;;;10.79;99.58;101107.88;5052343;28;20081;-77
2022/09/16 02:37:29;;;;;;;2.50;0.93;;;;;;;10.80;99.39;101106.69;5034138;28;20049;-77
2022/09/16 02:40:01;;;;;;;3.75;0.90;;;;;;;10.82;99.25;101104.31;5052455;28;20132;-77
2022/09/16 02:42:28;;;;;;;5.75;1.25;;;;;;;10.82;99.43;101102.41;5052696;28;20480;-77
2022/09/16 02:44:56;;;;;;;2.38;1.05;;;;;;;10.82;99.56;101107.00;5050695;28;20049;-77
2022/09/16 02:47:29;;;;;;;1.70;0.82;;;;;;;10.81;99.33;101095.59;5034897;28;20128;-77
2022/09/16 02:50:15;;;;;;;1.08;0.90;;;;;;;10.81;99.49;101092.94;5052079;28;20052;-77
2022/09/16 02:53:07;;;;;;;4.72;0.98;;;;;;;10.81;99.23;101102.84;5052280;28;20176;-77
2022/09/16 02:55:52;;;;;;;4.80;1.25;;;;;;;10.80;99.14;101118.06;5052149;28;20049;-77
2022/09/16 02:58:19;;;;;;;6.35;1.10;;;;;;;10.80;99.73;101125.31;5052504;28;20045;-77
2022/09/16 03:00:48;;;;;;;2.60;0.95;;;;;;;10.80;99.85;101125.31;5034197;28;20046;-77
2022/09/16 03:03:15;;;;;;;1.98;1.17;;;;;;;10.80;99.71;101133.31;5050260;28;20247;-77
2022/09/16 03:06:09;;;;;;;2.00;1.00;;;;;;;10.82;99.62;101125.63;5033980;28;20041;-77
2022/09/16 03:08:37;;;;;;;2.55;0.90;;;;;;;10.84;100.00;101118.69;5052107;28;20065;-77
2022/09/16 03:11:31;;;;;;;5.40;1.20;;;;;;;10.85;99.55;101112.19;5050551;28;20053;-77
2022/09/16 03:14:21;;;;;;;4.47;1.20;;;;;;;10.84;99.71;101109.97;5051824;28;20046;-77
2022/09/16 03:17:26;;;;;;;1.33;0.85;;;;;;;10.83;99.96;101108.47;5052026;28;20088;-77
2022/09/16 03:20:23;;;;;;;3.67;1.05;;;;;;;10.80;99.58;101094.09;5046205;28;20112;-78
2022/09/16 03:23:23;;;;;;;1.35;0.80;;;;;;;10.80;99.42;101096.03;5033791;28;20053;-77
2022/09/16 03:25:59;;;;;;;2.33;1.02;;;;;;;10.78;99.39;101090.41;5051671;28;20069;-75
2022/09/16 03:28:50;;;;;;;0.90;0.80;;;;;;;10.77;99.56;101092.34;5034050;28;20053;-78
2022/09/16 03:31:30;;;;;;;4.30;1.00;;;;;;;10.76;99.29;101106.06;5051928;28;20077;-79
2022/09/16 03:34:22;;;;;;;1.50;0.77;;;;;;;10.78;99.30;101128.44;5016578;28;20053;-79
2022/09/16 03:36:51;;;;;;;;;;;;;;;10.77;99.17;101131.53;5033968;28;20121;-78
2022/09/16 03:39:18;;;;;;;1.33;0.68;;;;;;;10.77;99.72;101129.63;5052065;28;19925;-78
2022/09/16 03:41:44;;;;;;;1.80;0.93;;;;;;;10.78;99.86;101122.38;5051586;28;20713;-78
2022/09/16 03:44:11;;;;;;;2.15;0.90;;;;;;;10.76;99.48;101122.81;5051629;28;20491;-78
2022/09/16 03:46:37;;;;;;;2.58;1.10;;;;;;;10.77;99.60;101118.22;5051065;28;20125;-78
2022/09/16 03:49:04;;;;;;;1.30;0.85;;;;;;;10.78;99.63;101107.13;5068993;28;20053;-78
2022/09/16 03:51:30;;;;;;;3.67;1.00;;;;;;;10.76;100.00;101109.47;5070492;28;20514;-76
2022/09/16 03:53:57;;;;;;;1.95;0.85;;;;;;;10.78;100.00;101101.06;5053276;28;20041;-77
2022/09/16 03:56:23;;;;;;;5.22;1.00;;;;;;;10.80;100.00;101093.38;5071890;28;20139;-78
2022/09/16 03:58:50;;;;;;;3.92;1.00;;;;;;;10.81;100.00;101086.84;5071628;28;20357;-76
2022/09/16 04:01:17;;;;;;;2.67;1.02;;;;;;;10.79;100.00;101084.66;5053611;28;20055;-76
2022/09/16 04:03:43;;;;;;;2.17;1.02;;;;;;;10.82;100.00;101094.41;5052869;28;20045;-76
2022/09/16 04:06:10;;;;;;;4.50;0.95;;;;;;;10.81;100.00;101084.19;5071202;28;20549;-76
2022/09/16 04:08:38;;;;;;;3.15;0.90;;;;;;;10.80;100.00;101086.13;5053352;28;20143;-77
2022/09/16 04:11:05;;;;;;;2.78;0.82;;;;;;;10.80;100.00;101088.03;5070947;28;20088;-76
2022/09/16 04:13:34;;;;;;;4.97;0.88;;;;;;;10.77;100.00;101089.66;5071320;28;20120;-77
2022/09/16 04:16:02;;;;;;;3.25;0.90;;;;;;;10.75;100.00;101089.34;5071087;28;20045;-77
2022/09/16 04:18:30;;;;;;;3.10;0.95;;;;;;;10.73;100.00;101085.63;5052956;28;20041;-76
2022/09/16 04:20:58;;;;;;;2.25;0.73;;;;;;;10.71;99.96;101091.41;5053189;28;20563;-76
2022/09/16 04:23:26;;;;;;;2.20;0.75;;;;;;;10.67;100.00;101090.75;5071368;28;20055;-79
2022/09/16 04:25:54;;;;;;;2.83;1.20;;;;;;;10.64;99.94;101087.03;5070942;28;20041;-77
2022/09/16 04:28:21;;;;;;;5.65;0.90;;;;;;;10.59;99.56;101092.91;5071242;28;20037;-77
2022/09/16 04:30:47;;;;;;;1.27;1.08;;;;;;;10.56;99.58;101090.34;5070813;28;20111;-77
2022/09/16 04:33:14;;;;;;;1.77;0.70;;;;;;;10.53;99.42;101085.91;5070457;28;20056;-77
2022/09/16 04:35:40;;;;;;;4.65;1.17;;;;;;;10.50;99.45;101097.41;5052938;28;20496;-77
2022/09/16 04:38:07;;;;;;;3.03;0.88;;;;;;;10.47;98.99;101093.69;5071128;28;20041;-77
2022/09/16 04:40:33;;;;;;;1.75;0.90;;;;;;;10.45;98.89;101089.97;5074393;28;20041;-77
2022/09/16 04:43:00;;;;;;;0.80;0.68;;;;;;;10.42;98.89;101099.53;5039516;28;20490;-77
2022/09/16 04:45:26;;;;;;;2.05;0.80;;;;;;;10.40;98.84;101093.91;5074646;28;20049;-78
2022/09/16 04:47:56;;;;;;;2.17;0.70;;;;;;;10.38;98.80;101100.84;5055740;28;20056;-77
2022/09/16 04:50:23;;;;;;;1.67;0.65;;;;;;;10.34;99.04;101090.31;5074526;28;20129;-77
2022/09/16 04:52:50;;;;;;;4.45;1.00;;;;;;;10.30;99.04;101089.69;5074288;28;20358;-77
2022/09/16 04:55:17;;;;;;;3.72;0.63;;;;;;;10.31;98.86;101091.19;5074593;28;20497;-77
2022/09/16 04:57:43;;;;;;;4.78;1.08;;;;;;;10.31;98.66;101088.50;5055852;28;20072;-77
2022/09/16 05:00:10;;;;;;;2.97;1.00;;;;;;;10.30;98.88;101093.09;5055552;28;20140;-77
2022/09/16 05:02:37;;;;;;;2.88;0.80;;;;;;;10.28;98.60;101090.09;5073868;28;20132;-77
2022/09/16 05:05:03;;;;;;;5.57;0.70;;;;;;;10.28;98.66;101095.44;5074148;28;20488;-78
2022/09/16 05:07:30;;;;;;;2.33;0.80;;;;;;;10.24;99.08;101091.41;5056322;28;20037;-78
2022/09/16 05:09:56;;;;;;;2.35;1.08;;;;;;;10.24;98.81;101091.41;5056205;28;20047;-78
2022/09/16 05:12:23;;;;;;;0.70;0.70;;;;;;;10.24;98.89;101089.47;5055972;28;20509;-77
2022/09/16 05:14:49;;;;;;;0.90;0.90;;;;;;;10.22;98.92;101091.81;5073861;28;20120;-77
2022/09/16 05:17:15;;;;;;;3.72;1.10;;;;;;;10.19;99.17;101090.00;5073386;28;20507;-77
2022/09/16 05:20:02;;;;;;;1.42;0.90;;;;;;;10.19;98.99;101087.34;5058742;28;20485;-77
2022/09/16 05:22:29;;;;;;;3.90;1.02;;;;;;;10.20;99.25;101088.09;5073581;28;20429;-77
2022/09/16 05:24:55;;;;;;;4.03;0.85;;;;;;;10.21;99.06;101087.66;5073427;28;20049;-77
2022/09/16 05:27:22;;;;;;;2.00;1.00;;;;;;;10.22;99.72;101085.75;5056031;28;20036;-77
2022/09/16 05:29:48;;;;;;;2.70;1.20;;;;;;;10.24;99.38;101094.81;5072795;28;20056;-79
2022/09/16 05:32:15;;;;;;;2.17;1.00;;;;;;;10.26;99.32;101097.78;5073464;28;20049;-79
2022/09/16 05:34:43;;;;;;;2.30;1.00;;;;;;;10.29;99.78;101093.50;5038813;28;20566;-79
2022/09/16 05:37:09;;;;;;;3.28;0.95;;;;;;;10.32;99.87;101100.66;5073582;28;20047;-79
2022/09/16 05:39:36;;;;;;;5.07;1.08;;;;;;;10.39;99.87;101113.00;5073219;28;20128;-79
2022/09/16 05:42:03;;;;;;;3.15;1.10;;;;;;;10.45;100.00;101116.56;5055151;28;20053;-78
2022/09/16 05:44:29;;;;;;;4.07;1.40;;;;;;;10.47;100.00;101114.97;5073049;28;20041;-78
2022/09/16 05:46:56;;;;;;;3.38;1.00;;;;;;;10.49;100.00;101109.22;5073514;28;20041;-77
2022/09/16 05:49:23;;;;;;;5.78;1.38;;;;;;;10.56;100.00;101106.34;5073279;28;20044;-79
2022/09/16 05:51:50;;;;;;;1.60;1.25;;;;;;;10.59;100.00;101118.78;5073259;28;20079;-76
2022/09/16 05:54:18;;;;;;;2.25;1.20;;;;;;;10.61;100.00;101117.19;5073480;28;20079;-76
2022/09/16 05:56:45;;;;;;;2.38;1.10;;;;;;;10.62;100.00;101115.25;5054613;28;20048;-76
2022/09/16 05:59:12;;;;;;;7.00;1.30;;;;;;;10.62;100.00;101118.69;5072889;28;20138;-79
2022/09/16 06:01:39;;;;;;;5.63;1.20;;;;;;;10.64;100.00;101112.91;5072447;28;20525;-80
2022/09/16 06:04:08;;;;;;;1.83;0.95;;;;;;;10.65;99.96;101117.81;5038104;28;20049;-76
2022/09/16 06:06:37;;;;;;;4.68;1.13;;;;;;;10.66;99.63;101115.91;5054112;28;20453;-79
2022/09/16 06:09:10;;;;;;;4.57;1.20;;;;;;;10.68;99.89;101118.88;5054672;28;20071;-76
2022/09/16 06:11:40;;;;;;;4.78;1.10;;;;;;;10.74;99.73;101122.47;5072802;28;20077;-73
2022/09/16 06:14:08;;;;;;;5.25;1.13;;;;;;;11.59;98.13;101119.53;5072280;28;20045;-73
2022/09/16 06:16:35;;;;;;;3.70;1.15;;;;;;;11.87;94.93;101122.34;5072714;28;20041;-73
2022/09/16 06:19:04;;;;;;;2.55;1.20;;;;;;;11.58;96.19;101128.69;5072946;28;20499;-73
2022/09/16 06:21:31;;;;;;;2.97;0.90;;;;;;;11.92;95.40;101125.19;5072720;28;20052;-72
2022/09/16 06:23:58;;;;;;;1.55;1.08;;;;;;;13.11;91.23;101125.34;5072867;28;20076;-78
2022/09/16 06:26:26;;;;;;;4.07;1.00;;;;;;;13.98;87.24;101126.50;5073145;28;20161;-82
2022/09/16 06:28:52;;;;;;;2.72;0.98;;;;;;;14.34;83.76;101133.59;5072020;28;20447;-79
2022/09/16 06:31:20;;;;;;;5.05;1.27;;;;;;;14.26;83.45;101124.41;5072691;28;20057;-80
2022/09/16 06:33:49;;;;;;;1.88;0.88;;;;;;;14.27;83.29;101131.97;5072388;28;20041;-80
2022/09/16 06:36:18;;;;;;;3.75;1.05;;;;;;;14.16;83.70;101142.44;5072534;28;20137;-79
2022/09/16 06:38:46;;;;;;;3.05;1.15;;;;;;;13.47;85.67;101143.28;5072436;28;20043;-80
2022/09/16 06:41:14;;;;;;;2.92;0.98;;;;;;;12.82;88.19;101143.75;5067128;28;20048;-79
2022/09/16 06:43:41;;;;;;;3.28;1.30;;;;;;;12.44;89.92;101146.81;5071815;28;20049;-79
2022/09/16 06:46:15;;;;;;;1.50;0.98;;;;;;;12.20;90.89;101135.94;5072423;28;20466;-80
2022/09/16 06:48:43;;;;;;;1.67;1.00;;;;;;;12.12;92.07;101130.13;5061990;28;20049;-79
2022/09/16 06:51:16;;;;;;;4.00;1.00;;;;;;;12.31;93.46;101131.69;5072124;28;20128;-79
2022/09/16 06:53:43;;;;;;;3.05;1.10;;;;;;;12.56;94.09;101129.94;5053686;28;20145;-80
2022/09/16 06:56:15;;;;;;;3.15;1.20;;;;;;;12.77;93.80;101129.06;5053796;28;20068;-80
2022/09/16 06:58:46;;;;;;;2.95;1.42;;;;;;;12.81;93.59;101132.31;5036861;28;20102;-82
2022/09/16 07:01:18;;;;;;;3.20;1.20;;;;;;;12.87;93.02;101135.88;5071294;28;20049;-83
2022/09/16 07:03:45;;;;;;;;;;;;;;;12.90;92.58;101137.66;5037816;28;20052;-80
2022/09/16 07:06:13;;;;;;;4.85;0.98;;;;;;;12.86;92.18;101136.34;5054639;28;20415;-80
2022/09/16 07:08:41;;;;;;;3.13;1.10;;;;;;;12.90;93.01;101140.34;5071941;28;20099;-79
2022/09/16 07:11:13;;;;;;;3.97;1.05;;;;;;;13.01;92.34;101129.97;5053151;28;20049;-83
2022/09/16 07:13:41;;;;;;;4.35;1.00;;;;;;;13.03;91.08;101140.19;5054012;28;20045;-82
2022/09/16 07:16:10;;;;;;;2.47;0.88;;;;;;;13.00;90.80;101144.50;5053828;28;20049;-83
2022/09/16 07:18:40;;;;;;;;;;;;;;;13.01;90.89;101147.91;5053711;28;20513;-82
2022/09/16 07:21:18;;;;;;;2.35;1.10;;;;;;;13.05;89.90;101142.44;5070225;28;20027;-80
2022/09/16 07:23:45;;;;;;;7.60;1.10;;;;;;;13.07;90.79;101140.06;5071928;28;20055;-80
2022/09/16 07:26:17;;;;;;;4.00;1.02;;;;;;;13.10;89.49;101131.88;5053418;28;20041;-81
2022/09/16 07:28:45;;;;;;;4.22;1.20;;;;;;;13.18;89.71;101141.13;5071827;28;20482;-79
2022/09/16 07:31:20;;;;;;;2.47;0.80;;;;;;;13.36;89.94;101145.69;5071551;28;20578;-81
2022/09/16 07:33:49;;;;;;;10.80;1.15;;;;;;;13.53;89.64;101138.81;5071917;28;20076;-79
2022/09/16 07:36:22;;;;;;;2.78;1.00;;;;;;;13.64;88.98;101135.66;5052927;28;20087;-80
2022/09/16 07:38:50;;;;;;;5.28;0.90;;;;;;;13.74;87.42;101139.78;5071601;28;20512;-81
2022/09/16 07:41:25;;;;;;;1.38;0.70;;;;;;;13.68;86.73;101133.56;5077838;22;20071;-73
2022/09/16 07:43:53;;;;;;;3.78;0.77;;;;;;;13.67;85.25;101140.09;5071650;28;20506;-73
2022/09/16 07:46:20;;;;;;;5.82;1.00;;;;;;;13.81;84.42;101147.50;5053487;28;20103;-73
2022/09/16 07:48:48;;;;;;;3.67;1.17;;;;;;;14.00;85.26;101148.16;5071524;28;20611;-73
2022/09/16 07:51:21;;;;;;;6.30;1.15;;;;;;;14.06;83.18;101145.59;5053406;28;20141;-73
2022/09/16 07:53:52;;;;;;;2.75;0.68;;;;;;;14.20;82.70;101151.06;5071779;28;20445;-73
2022/09/16 07:56:21;;;;;;;1.55;0.80;;;;;;;14.30;81.65;101160.53;5071540;28;20512;-73
2022/09/16 07:58:48;;;;;;;5.30;1.10;;;;;;;14.56;80.34;101173.50;5071547;28;20041;-73
2022/09/16 08:01:15;;;;;;;4.03;0.70;;;;;;;14.46;80.24;101180.84;5071343;28;20457;-73
2022/09/16 08:03:44;;;;;;;5.47;0.75;;;;;;;14.39;81.60;101188.47;5071700;28;20041;-73
2022/09/16 08:06:17;;;;;;;3.25;0.90;;;;;;;14.38;79.19;101186.97;5071320;28;20573;-73
2022/09/16 08:08:44;;;;;;;1.33;0.70;;;;;;;14.39;78.28;101183.09;5070394;28;20045;-73
2022/09/16 08:11:13;;;;;;;2.95;0.82;;;;;;;14.58;78.43;101195.22;5070980;28;20514;-74
2022/09/16 08:13:41;;;;;;;2.63;0.80;;;;;;;14.52;78.83;101195.09;5073169;28;20128;-74
2022/09/16 08:16:11;;;;;;;1.38;0.57;;;;;;;14.25;80.01;101198.63;5074697;28;20044;-73
2022/09/16 08:18:38;;;;;;;3.92;0.68;;;;;;;13.98;80.25;101180.00;5074794;28;20045;-74
2022/09/16 08:21:10;;;;;;;1.27;0.65;;;;;;;13.76;81.26;101174.13;5055961;28;20087;-74
2022/09/16 08:23:37;;;;;;;5.60;0.80;;;;;;;13.55;82.26;101175.81;5073835;28;20129;-75
2022/09/16 08:26:07;;;;;;;2.20;0.80;;;;;;;13.50;82.40;101176.44;5055349;28;20049;-73
2022/09/16 08:28:33;;;;;;;1.30;0.60;;;;;;;13.42;83.55;101188.63;5057439;28;20099;-74
2022/09/16 08:31:20;;;;;;;6.78;1.00;;;;;;;13.39;84.12;101181.47;5074661;28;20056;-73
2022/09/16 08:33:47;;;;;;;3.30;0.85;;;;;;;13.45;86.34;101187.72;5064868;28;20049;-74
2022/09/16 08:36:19;;;;;;;9.52;0.93;;;;;;;13.69;85.51;101191.22;5074300;28;20055;-74
2022/09/16 08:38:47;;;;;;;3.53;0.90;;;;;;;13.77;83.76;101194.34;5073686;28;20491;-74
2022/09/16 08:41:20;;;;;;;1.63;0.50;;;;;;;13.75;83.75;101199.41;5072078;28;20071;-74
2022/09/16 08:43:52;;;;;;;1.42;0.70;;;;;;;13.96;83.16;101201.88;5074360;28;20045;-74
2022/09/16 08:46:34;;;;;;;1.40;0.70;;;;;;;14.28;83.75;101195.06;5074638;28;20512;-76
2022/09/16 08:49:26;;;;;;;2.40;0.73;;;;;;;14.50;84.32;101186.78;5056015;28;20052;-77
2022/09/16 08:51:55;;;;;;;1.83;0.68;;;;;;;14.74;82.02;101192.16;5074241;28;20041;-76
2022/09/16 08:54:36;;;;;;;1.17;0.80;;;;;;;14.89;79.74;101189.50;5074046;28;20112;-74
2022/09/16 08:57:04;;;;;;;1.37;0.70;;;;;;;14.96;80.39;101192.56;5074440;28;20109;-76
2022/09/16 08:59:38;;;;;;;4.57;0.85;;;;;;;15.12;80.47;101190.69;5055610;28;20486;-76
2022/09/16 09:02:07;;;;;;;2.13;0.77;;;;;;;15.23;78.26;101190.84;5072750;28;20103;-75
2022/09/16 09:04:35;;;;;;;3.95;0.82;;;;;;;15.22;77.22;101175.97;5039445;28;20532;-75
2022/09/16 09:07:21;;;;;;;0.98;0.52;;;;;;;15.22;76.55;101192.78;5074286;28;20045;-75
2022/09/16 09:10:05;;;;;;;2.75;0.90;;;;;;;15.40;75.96;101191.16;5074185;28;20112;-76
2022/09/16 09:12:39;;;;;;;3.05;0.80;;;;;;;15.63;74.25;101201.09;5055569;28;20055;-75
2022/09/16 09:15:40;;;;;;;2.33;1.00;;;;;;;15.97;74.56;101205.06;5074080;28;20083;-74
2022/09/16 09:18:20;;;;;;;1.77;0.70;;;;;;;15.90;72.19;101208.13;5074296;28;20041;-74
2022/09/16 09:21:02;;;;;;;2.75;1.00;;;;;;;15.66;74.28;101217.00;5074033;28;20577;-75
2022/09/16 09:24:09;;;;;;;4.40;0.93;;;;;;;15.24;75.64;101213.78;5055201;28;20053;-76
2022/09/16 09:26:50;;;;;;;4.35;0.88;;;;;;;14.88;76.02;101220.91;5073444;28;20075;-75
2022/09/16 09:29:41;;;;;;;4.55;0.70;;;;;;;14.90;77.07;101220.47;5072942;28;20127;-74
2022/09/16 09:32:42;;;;;;;3.63;1.10;;;;;;;15.40;77.10;101213.38;5055621;28;20478;-76
2022/09/16 09:35:15;;;;;;;2.45;0.80;;;;;;;15.72;77.25;101205.63;5073754;28;20052;-76
2022/09/16 09:37:56;;;;;;;5.25;0.75;;;;;;;15.58;77.36;101205.19;5073467;28;20032;-72
2022/09/16 09:40:45;;;;;;;3.05;1.02;;;;;;;15.60;75.49;101204.69;5073178;28;20057;-73
2022/09/16 09:43:19;;;;;;;4.18;0.80;;;;;;;16.04;77.24;101201.97;5055154;28;20344;-73
2022/09/16 09:46:03;;;;;;;2.03;0.70;;;;;;;16.06;74.56;101206.88;5073575;28;20052;-73
2022/09/16 09:48:56;;;;;;;2.30;0.85;;;;;;;15.89;72.37;101202.00;5055676;28;20068;-73
2022/09/16 09:51:37;;;;;;;2.85;0.98;;;;;;;15.62;70.17;101200.34;5048516;28;20135;-73
2022/09/16 09:54:17;;;;;;;3.60;0.70;;;;;;;15.41;69.04;101198.75;5073313;28;20116;-74
2022/09/16 09:56:44;;;;;;;1.58;0.90;;;;;;;15.42;70.16;101191.44;5073316;28;20052;-76
2022/09/16 09:59:44;;;;;;;1.85;0.60;;;;;;;15.58;70.87;101197.13;5073308;28;20320;-74
2022/09/16 10:02:16;;;;;;;5.35;0.93;;;;;;;15.55;69.79;101194.59;5072814;28;20045;-74
2022/09/16 10:04:43;;;;;;;2.08;0.68;;;;;;;15.74;66.53;101192.50;5071621;28;20585;-75
2022/09/16 10:07:13;;;;;;;2.13;0.63;;;;;;;15.86;65.45;101192.22;5072420;28;20509;-76
2022/09/16 10:09:55;;;;;;;1.70;0.50;;;;;;;16.02;67.82;101202.44;5073102;28;20099;-74
2022/09/16 10:12:35;;;;;;;0.68;0.50;;;;;;;15.90;66.51;101200.06;5073219;28;20489;-79
2022/09/16 10:15:02;;;;;;;4.40;0.65;;;;;;;15.95;65.80;101208.22;5073053;28;20080;-74
2022/09/16 10:17:31;;;;;;;0.80;0.50;;;;;;;16.07;65.83;101214.47;5073381;28;20045;-74
2022/09/16 10:20:20;;;;;;;2.72;0.50;;;;;;;15.95;68.71;101218.22;5072053;28;20041;-76
2022/09/16 10:22:56;;;;;;;0.95;0.82;;;;;;;15.70;70.07;101227.56;5054718;28;20047;-74
2022/09/16 10:25:24;;;;;;;0.93;0.35;;;;;;;15.04;70.94;101227.81;5055277;28;20049;-73
2022/09/16 10:28:03;;;;;;;0.68;0.50;;;;;;;14.76;73.25;101226.53;5054287;28;20962;-74
2022/09/16 10:30:40;;;;;;;2.90;0.90;;;;;;;14.57;73.78;101223.94;5072763;28;20045;-73
2022/09/16 10:33:22;;;;;;;1.92;0.40;;;;;;;14.53;74.58;101236.03;5072789;28;20049;-72
2022/09/16 10:35:57;;;;;;;;;;;;;;;14.50;74.92;101228.88;5071842;28;20136;-73
2022/09/16 10:38:34;;;;;;;2.17;0.55;;;;;;;14.51;77.54;101236.47;5072689;28;20407;-73
2022/09/16 10:41:07;;;;;;;3.05;0.63;;;;;;;14.71;77.83;101232.50;5072341;28;20056;-76
2022/09/16 10:43:36;;;;;;;0.57;0.50;;;;;;;14.91;76.43;101227.31;5072581;28;20112;-76
2022/09/16 10:46:04;;;;;;;1.48;0.70;;;;;;;14.97;75.23;101228.91;5054154;28;20045;-77
2022/09/16 10:48:32;;;;;;;1.65;0.45;;;;;;;14.93;75.83;101228.34;5072086;28;20597;-75
2022/09/16 10:51:01;;;;;;;1.80;1.15;;;;;;;14.80;72.61;101232.44;5072258;28;20080;-75
2022/09/16 10:53:31;;;;;;;1.58;0.55;;;;;;;14.81;72.54;101220.53;5072694;28;20044;-76
2022/09/16 10:56:04;;;;;;;2.50;0.60;;;;;;;14.83;73.64;101220.81;5072405;28;20508;-75
2022/09/16 10:58:31;;;;;;;2.92;0.70;;;;;;;14.99;74.23;101215.03;5072087;28;20076;-76
2022/09/16 11:01:25;;;;;;;2.08;0.80;;;;;;;15.10;74.15;101217.19;5072510;28;20044;-75
2022/09/16 11:04:24;;;;;;;1.35;0.63;;;;;;;14.92;70.63;101208.09;5053353;28;20077;-75
2022/09/16 11:06:56;;;;;;;4.00;0.80;;;;;;;14.85;70.97;101215.72;5071838;28;20238;-76
2022/09/16 11:09:31;;;;;;;0.82;0.52;;;;;;;14.97;70.69;101215.50;5072389;28;20051;-76
2022/09/16 11:12:28;;;;;;;2.72;0.82;;;;;;;15.07;70.07;101212.75;5070940;28;20486;-76
2022/09/16 11:15:09;;;;;;;1.50;0.60;;;;;;;15.04;71.95;101211.72;5070899;28;20043;-76
2022/09/16 11:17:51;;;;;;;3.00;0.75;;;;;;;14.97;71.94;101217.44;5071142;28;20055;-75
2022/09/16 11:20:29;;;;;;;;;;;;;;;15.16;72.22;101218.06;5072445;28;20115;-76
2022/09/16 11:23:33;;;;;;;1.50;0.73;;;;;;;15.28;67.79;101212.41;5071802;28;20011;-75
2022/09/16 11:26:00;;;;;;;3.17;0.75;;;;;;;15.57;68.83;101209.06;5071649;28;20083;-75
2022/09/16 11:28:32;;;;;;;2.05;0.70;;;;;;;15.66;67.87;101211.63;5070585;28;20136;-75
2022/09/16 11:31:31;;;;;;;2.45;0.82;;;;;;;15.75;67.76;101213.50;5072012;28;20045;-75
2022/09/16 11:34:17;;;;;;;1.05;0.52;;;;;;;15.70;66.90;101216.81;5032763;28;20052;-76
2022/09/16 11:37:01;;;;;;;2.63;0.70;;;;;;;15.65;69.81;101212.84;5053771;28;20395;-75
2022/09/16 11:39:58;;;;;;;1.45;0.75;;;;;;;15.63;68.81;101214.50;5072229;28;20120;-76
2022/09/16 11:42:40;;;;;;;3.47;0.82;;;;;;;15.68;69.37;101222.66;5071688;28;20587;-75
2022/09/16 11:45:31;;;;;;;2.08;0.90;;;;;;;15.56;70.15;101239.03;5071958;28;20041;-75
2022/09/16 11:48:03;;;;;;;3.40;0.88;;;;;;;15.05;71.16;101240.03;5070748;28;20076;-75
2022/09/16 11:51:03;;;;;;;1.20;0.80;;;;;;;14.86;73.53;101227.94;5075191;28;20132;-75
2022/09/16 11:53:45;;;;;;;3.72;0.80;;;;;;;14.55;72.60;101220.22;5075541;28;20288;-75
2022/09/16 11:56:20;;;;;;;2.63;0.77;;;;;;;14.29;74.61;101207.25;5075369;28;20128;-75